DFAGL EDDG-EDXW
Flight info
| Callsign | DFAGL |
|---|---|
| Flight time | 1h 9m |
| Altitude | 21000 |
| Route | OSNAD1Z OSNAD M170 EXPUH/N0274F220 DCT DP DCT ABDIM DCT REVLA DCT NOSNO/N0276F210 DCT ABFAD DCT OLDIP |
| Aircraft | PC12/L-SDFGRWY/S |
Departure
| Time | 2026-04-14 22:20 |
|---|---|
| Airport | Münster Osnabrück Airport (EDDG) |
Arrival
| Time | 2026-04-14 23:30 |
|---|---|
| Airport | Westerland Sylt Airport (EDXW) |
| Time | Latitude | Longitude | Altitude | Speed | Heading |
|---|---|---|---|---|---|
| 2026-04-14 22:00 | 52.13158 | 7.68235 | 164 ft | 0 kts | 90° |
| 2026-04-14 22:13 | 52.13158 | 7.68236 | 164 ft | 0 kts | 91° |
| 2026-04-14 22:13 | 52.13182 | 7.68268 | 165 ft | 6 kts | 37° |
| 2026-04-14 22:14 | 52.13187 | 7.68310 | 165 ft | 9 kts | 89° |
| 2026-04-14 22:14 | 52.13226 | 7.68334 | 166 ft | 13 kts | 341° |
| 2026-04-14 22:14 | 52.13284 | 7.68454 | 165 ft | 21 kts | 73° |
| 2026-04-14 22:14 | 52.13342 | 7.68703 | 164 ft | 21 kts | 65° |
| 2026-04-14 22:15 | 52.13383 | 7.68927 | 163 ft | 27 kts | 72° |
| 2026-04-14 22:15 | 52.13450 | 7.69238 | 162 ft | 18 kts | 72° |
| 2026-04-14 22:15 | 52.13473 | 7.69342 | 164 ft | 17 kts | 70° |
| 2026-04-14 22:15 | 52.13529 | 7.69618 | 164 ft | 33 kts | 71° |
| 2026-04-14 22:16 | 52.13586 | 7.69867 | 161 ft | 31 kts | 70° |
| 2026-04-14 22:16 | 52.13682 | 7.70033 | 161 ft | 9 kts | 360° |
| 2026-04-14 22:16 | 52.13695 | 7.70032 | 160 ft | 0 kts | 353° |
| 2026-04-14 22:18 | 52.13756 | 7.69991 | 161 ft | 14 kts | 319° |
| 2026-04-14 22:18 | 52.13760 | 7.69878 | 164 ft | 8 kts | 252° |
| 2026-04-14 22:19 | 52.13739 | 7.69776 | 165 ft | 8 kts | 249° |
| 2026-04-14 22:19 | 52.13737 | 7.69770 | 165 ft | 2 kts | 249° |
| 2026-04-14 22:19 | 52.13687 | 7.69538 | 167 ft | 51 kts | 252° |
| 2026-04-14 22:20 | 52.13505 | 7.68687 | 216 ft | 99 kts | 250° |
| 2026-04-14 22:20 | 52.13260 | 7.67521 | 457 ft | 124 kts | 250° |
| 2026-04-14 22:20 | 52.12952 | 7.66080 | 889 ft | 137 kts | 248° |
| 2026-04-14 22:20 | 52.12350 | 7.64901 | 1498 ft | 137 kts | 214° |
| 2026-04-14 22:21 | 52.11458 | 7.64388 | 2224 ft | 132 kts | 182° |
| 2026-04-14 22:21 | 52.10569 | 7.64301 | 3035 ft | 129 kts | 182° |
| 2026-04-14 22:21 | 52.09570 | 7.64762 | 3065 ft | 178 kts | 144° |
| 2026-04-14 22:21 | 52.08578 | 7.66177 | 3010 ft | 199 kts | 138° |
| 2026-04-14 22:22 | 52.07562 | 7.67702 | 3573 ft | 189 kts | 135° |
| 2026-04-14 22:22 | 52.06861 | 7.69325 | 4692 ft | 164 kts | 117° |
| 2026-04-14 22:22 | 52.06517 | 7.70992 | 5627 ft | 159 kts | 103° |
| 2026-04-14 22:22 | 52.06479 | 7.72939 | 5983 ft | 187 kts | 84° |
| 2026-04-14 22:23 | 52.06875 | 7.75055 | 6455 ft | 200 kts | 68° |
| 2026-04-14 22:23 | 52.07399 | 7.77125 | 7090 ft | 201 kts | 69° |
| 2026-04-14 22:23 | 52.07921 | 7.79253 | 7714 ft | 204 kts | 68° |
| 2026-04-14 22:23 | 52.08455 | 7.81411 | 8349 ft | 206 kts | 68° |
| 2026-04-14 22:24 | 52.09015 | 7.83666 | 8607 ft | 227 kts | 68° |
| 2026-04-14 22:24 | 52.09632 | 7.86165 | 8626 ft | 246 kts | 68° |
| 2026-04-14 22:24 | 52.10281 | 7.88796 | 8644 ft | 254 kts | 68° |
| 2026-04-14 22:24 | 52.10945 | 7.91486 | 8656 ft | 258 kts | 68° |
| 2026-04-14 22:25 | 52.11610 | 7.94185 | 8831 ft | 254 kts | 68° |
| 2026-04-14 22:25 | 52.12244 | 7.96756 | 9520 ft | 237 kts | 67° |
| 2026-04-14 22:25 | 52.12849 | 7.99212 | 10012 ft | 231 kts | 67° |
| 2026-04-14 22:25 | 52.13444 | 8.01631 | 10102 ft | 232 kts | 67° |
| 2026-04-14 22:26 | 52.14044 | 8.04076 | 10595 ft | 231 kts | 67° |
| 2026-04-14 22:26 | 52.14642 | 8.06515 | 11088 ft | 234 kts | 67° |
| 2026-04-14 22:26 | 52.15248 | 8.08987 | 11565 ft | 236 kts | 67° |
| 2026-04-14 22:26 | 52.15853 | 8.11458 | 12014 ft | 239 kts | 67° |
| 2026-04-14 22:27 | 52.16470 | 8.13986 | 12464 ft | 241 kts | 67° |
| 2026-04-14 22:27 | 52.17095 | 8.16544 | 12903 ft | 244 kts | 67° |
| 2026-04-14 22:27 | 52.17723 | 8.19121 | 13337 ft | 246 kts | 67° |
| 2026-04-14 22:27 | 52.18359 | 8.21730 | 13765 ft | 249 kts | 67° |
| 2026-04-14 22:28 | 52.18996 | 8.24354 | 14260 ft | 245 kts | 67° |
| 2026-04-14 22:28 | 52.19638 | 8.26763 | 15246 ft | 218 kts | 57° |
| 2026-04-14 22:28 | 52.20508 | 8.28577 | 16328 ft | 189 kts | 40° |
| 2026-04-14 22:28 | 52.21522 | 8.29845 | 17104 ft | 182 kts | 25° |
| 2026-04-14 22:29 | 52.22652 | 8.30809 | 17719 ft | 184 kts | 23° |
| 2026-04-14 22:29 | 52.23766 | 8.31791 | 18370 ft | 185 kts | 22° |
| 2026-04-14 22:29 | 52.24909 | 8.32788 | 18943 ft | 186 kts | 22° |
| 2026-04-14 22:29 | 52.26051 | 8.33780 | 19529 ft | 186 kts | 22° |
| 2026-04-14 22:30 | 52.27194 | 8.34773 | 20116 ft | 186 kts | 22° |
| 2026-04-14 22:30 | 52.28323 | 8.35749 | 20482 ft | 200 kts | 22° |
| 2026-04-14 22:30 | 52.29630 | 8.36880 | 20577 ft | 226 kts | 23° |
| 2026-04-14 22:30 | 52.31083 | 8.38150 | 20622 ft | 247 kts | 24° |
| 2026-04-14 22:31 | 52.32648 | 8.39521 | 20668 ft | 262 kts | 24° |
| 2026-04-14 22:31 | 52.34273 | 8.40941 | 20694 ft | 271 kts | 24° |
| 2026-04-14 22:31 | 52.35975 | 8.42319 | 20710 ft | 274 kts | 16° |
| 2026-04-14 22:31 | 52.37833 | 8.42911 | 20721 ft | 273 kts | 1° |
| 2026-04-14 22:32 | 52.39735 | 8.43116 | 20733 ft | 275 kts | 0° |
| 2026-04-14 22:32 | 52.41650 | 8.43327 | 20747 ft | 276 kts | 1° |
| 2026-04-14 22:32 | 52.43532 | 8.43547 | 20971 ft | 268 kts | 1° |
| 2026-04-14 22:32 | 52.45299 | 8.43757 | 21841 ft | 242 kts | 0° |
| 2026-04-14 22:33 | 52.46937 | 8.43941 | 22486 ft | 235 kts | 359° |
| 2026-04-14 22:33 | 52.48570 | 8.44121 | 22841 ft | 236 kts | 360° |
| 2026-04-14 22:33 | 52.50215 | 8.44309 | 23204 ft | 238 kts | 360° |
| 2026-04-14 22:33 | 52.51897 | 8.44500 | 23284 ft | 247 kts | 0° |
| 2026-04-14 22:34 | 52.53598 | 8.44698 | 23287 ft | 250 kts | 0° |
| 2026-04-14 22:34 | 52.55364 | 8.44901 | 23285 ft | 258 kts | 0° |
| 2026-04-14 22:34 | 52.57174 | 8.45109 | 23284 ft | 263 kts | 0° |
| 2026-04-14 22:34 | 52.58999 | 8.45125 | 23284 ft | 263 kts | 349° |
| 2026-04-14 22:35 | 52.60759 | 8.44385 | 23286 ft | 262 kts | 338° |
| 2026-04-14 22:35 | 52.62465 | 8.43316 | 23284 ft | 263 kts | 338° |
| 2026-04-14 22:35 | 52.64178 | 8.42264 | 23281 ft | 263 kts | 338° |
| 2026-04-14 22:35 | 52.65890 | 8.41220 | 23283 ft | 262 kts | 338° |
| 2026-04-14 22:36 | 52.67602 | 8.40171 | 23282 ft | 262 kts | 338° |
| 2026-04-14 22:36 | 52.69304 | 8.39123 | 23282 ft | 262 kts | 338° |
| 2026-04-14 22:36 | 52.71011 | 8.38071 | 23282 ft | 262 kts | 338° |
| 2026-04-14 22:36 | 52.72715 | 8.37023 | 23280 ft | 261 kts | 337° |
| 2026-04-14 22:37 | 52.74412 | 8.35977 | 23281 ft | 259 kts | 337° |
| 2026-04-14 22:37 | 52.76096 | 8.34938 | 23280 ft | 258 kts | 337° |
| 2026-04-14 22:37 | 52.77777 | 8.33899 | 23279 ft | 258 kts | 337° |
| 2026-04-14 22:37 | 52.79437 | 8.32874 | 23278 ft | 257 kts | 337° |
| 2026-04-14 22:38 | 52.81115 | 8.31836 | 23274 ft | 257 kts | 337° |
| 2026-04-14 22:38 | 52.82793 | 8.30798 | 23274 ft | 257 kts | 337° |
| 2026-04-14 22:38 | 52.84473 | 8.29757 | 23274 ft | 257 kts | 337° |
| 2026-04-14 22:38 | 52.86150 | 8.28717 | 23274 ft | 257 kts | 337° |
| 2026-04-14 22:39 | 52.87823 | 8.27679 | 23279 ft | 257 kts | 337° |
| 2026-04-14 22:39 | 52.89500 | 8.26638 | 23283 ft | 257 kts | 337° |
| 2026-04-14 22:39 | 52.91175 | 8.25596 | 23285 ft | 257 kts | 337° |
| 2026-04-14 22:39 | 52.92851 | 8.24554 | 23286 ft | 257 kts | 337° |
| 2026-04-14 22:40 | 52.94526 | 8.23512 | 23284 ft | 257 kts | 337° |
| 2026-04-14 22:40 | 52.96202 | 8.22468 | 23284 ft | 257 kts | 337° |
| 2026-04-14 22:40 | 52.97879 | 8.21422 | 23283 ft | 257 kts | 336° |
| 2026-04-14 22:40 | 52.99549 | 8.20380 | 23282 ft | 256 kts | 336° |
| 2026-04-14 22:41 | 53.01187 | 8.19357 | 23283 ft | 256 kts | 336° |
| 2026-04-14 22:41 | 53.02802 | 8.18347 | 23283 ft | 255 kts | 336° |
| 2026-04-14 22:41 | 53.04515 | 8.17551 | 23276 ft | 258 kts | 348° |
| 2026-04-14 22:41 | 53.06299 | 8.17406 | 23276 ft | 260 kts | 355° |
| 2026-04-14 22:42 | 53.08107 | 8.17406 | 23280 ft | 260 kts | 355° |
| 2026-04-14 22:42 | 53.09920 | 8.17384 | 23279 ft | 260 kts | 355° |
| 2026-04-14 22:42 | 53.11733 | 8.17360 | 23279 ft | 260 kts | 355° |
| 2026-04-14 22:42 | 53.13544 | 8.17340 | 23279 ft | 262 kts | 355° |
| 2026-04-14 22:43 | 53.15376 | 8.17322 | 23275 ft | 263 kts | 355° |
| 2026-04-14 22:43 | 53.17210 | 8.17303 | 23280 ft | 264 kts | 355° |
| 2026-04-14 22:43 | 53.19056 | 8.17283 | 23283 ft | 265 kts | 355° |
| 2026-04-14 22:43 | 53.20902 | 8.17264 | 23283 ft | 265 kts | 355° |
| 2026-04-14 22:44 | 53.22732 | 8.17245 | 23281 ft | 266 kts | 355° |
| 2026-04-14 22:44 | 53.24582 | 8.17226 | 23282 ft | 266 kts | 355° |
| 2026-04-14 22:44 | 53.26433 | 8.17207 | 23282 ft | 266 kts | 355° |
| 2026-04-14 22:44 | 53.28283 | 8.17187 | 23283 ft | 266 kts | 355° |
| 2026-04-14 22:45 | 53.30115 | 8.17168 | 23285 ft | 266 kts | 355° |
| 2026-04-14 22:45 | 53.31943 | 8.17149 | 23285 ft | 266 kts | 355° |
| 2026-04-14 22:45 | 53.33771 | 8.16920 | 23283 ft | 263 kts | 349° |
| 2026-04-14 22:45 | 53.35592 | 8.16552 | 23286 ft | 264 kts | 349° |
| 2026-04-14 22:46 | 53.37415 | 8.16211 | 23282 ft | 264 kts | 349° |
| 2026-04-14 22:46 | 53.39242 | 8.15866 | 23282 ft | 264 kts | 349° |
| 2026-04-14 22:46 | 53.41065 | 8.15515 | 23283 ft | 264 kts | 349° |
| 2026-04-14 22:46 | 53.42889 | 8.15163 | 23283 ft | 264 kts | 349° |
| 2026-04-14 22:47 | 53.44715 | 8.14811 | 23284 ft | 264 kts | 349° |
| 2026-04-14 22:47 | 53.46543 | 8.14460 | 23294 ft | 264 kts | 349° |
| 2026-04-14 22:47 | 53.48361 | 8.14110 | 23287 ft | 262 kts | 349° |
| 2026-04-14 22:47 | 53.50143 | 8.13767 | 23289 ft | 260 kts | 349° |
| 2026-04-14 22:48 | 53.51939 | 8.13419 | 23283 ft | 259 kts | 349° |
| 2026-04-14 22:48 | 53.53730 | 8.13073 | 23281 ft | 258 kts | 349° |
| 2026-04-14 22:48 | 53.55512 | 8.12728 | 23280 ft | 258 kts | 349° |
| 2026-04-14 22:48 | 53.57292 | 8.12383 | 23277 ft | 257 kts | 349° |
| 2026-04-14 22:49 | 53.59091 | 8.12358 | 23269 ft | 264 kts | 4° |
| 2026-04-14 22:49 | 53.60874 | 8.13290 | 23274 ft | 274 kts | 19° |
| 2026-04-14 22:49 | 53.62490 | 8.15078 | 23276 ft | 281 kts | 31° |
| 2026-04-14 22:49 | 53.64032 | 8.17123 | 23281 ft | 282 kts | 32° |
| 2026-04-14 22:50 | 53.65584 | 8.19165 | 23287 ft | 283 kts | 31° |
| 2026-04-14 22:50 | 53.67142 | 8.21193 | 23286 ft | 283 kts | 31° |
| 2026-04-14 22:50 | 53.68704 | 8.23229 | 23291 ft | 283 kts | 31° |
| 2026-04-14 22:50 | 53.70242 | 8.25240 | 23289 ft | 283 kts | 31° |
| 2026-04-14 22:51 | 53.71800 | 8.27281 | 23279 ft | 284 kts | 31° |
| 2026-04-14 22:51 | 53.73361 | 8.29327 | 23284 ft | 283 kts | 31° |
| 2026-04-14 22:51 | 53.74917 | 8.31366 | 23282 ft | 283 kts | 31° |
| 2026-04-14 22:51 | 53.76470 | 8.33406 | 23283 ft | 283 kts | 31° |
| 2026-04-14 22:52 | 53.78024 | 8.35447 | 23285 ft | 283 kts | 31° |
| 2026-04-14 22:52 | 53.79575 | 8.37488 | 23289 ft | 283 kts | 31° |
| 2026-04-14 22:52 | 53.81131 | 8.39534 | 23215 ft | 285 kts | 31° |
| 2026-04-14 22:52 | 53.82709 | 8.41610 | 22877 ft | 288 kts | 31° |
| 2026-04-14 22:53 | 53.84279 | 8.43687 | 22501 ft | 285 kts | 31° |
| 2026-04-14 22:53 | 53.85836 | 8.45746 | 22132 ft | 284 kts | 31° |
| 2026-04-14 22:53 | 53.87396 | 8.47803 | 21759 ft | 284 kts | 31° |
| 2026-04-14 22:53 | 53.88951 | 8.49861 | 21389 ft | 285 kts | 32° |
| 2026-04-14 22:54 | 53.90527 | 8.51954 | 21011 ft | 289 kts | 32° |
| 2026-04-14 22:54 | 53.92118 | 8.54060 | 20629 ft | 291 kts | 32° |
| 2026-04-14 22:54 | 53.93721 | 8.56183 | 20242 ft | 294 kts | 32° |
| 2026-04-14 22:54 | 53.95346 | 8.58299 | 19847 ft | 293 kts | 28° |
| 2026-04-14 22:55 | 53.97172 | 8.59660 | 19454 ft | 284 kts | 9° |
| 2026-04-14 22:55 | 53.99100 | 8.60159 | 19080 ft | 279 kts | 359° |
| 2026-04-14 22:55 | 54.01044 | 8.60441 | 18711 ft | 282 kts | 359° |
| 2026-04-14 22:55 | 54.03003 | 8.60755 | 18310 ft | 283 kts | 0° |
| 2026-04-14 22:56 | 54.04968 | 8.61082 | 17925 ft | 283 kts | 360° |
| 2026-04-14 22:56 | 54.06931 | 8.61387 | 17553 ft | 285 kts | 359° |
| 2026-04-14 22:56 | 54.08921 | 8.61669 | 17155 ft | 288 kts | 359° |
| 2026-04-14 22:56 | 54.10911 | 8.61944 | 16876 ft | 289 kts | 1° |
| 2026-04-14 22:57 | 54.12889 | 8.62314 | 16475 ft | 290 kts | 359° |
| 2026-04-14 22:57 | 54.14902 | 8.62581 | 16039 ft | 287 kts | 358° |
| 2026-04-14 22:57 | 54.16871 | 8.62771 | 15727 ft | 284 kts | 358° |
| 2026-04-14 22:57 | 54.18859 | 8.63121 | 15321 ft | 289 kts | 4° |
| 2026-04-14 22:58 | 54.20824 | 8.63676 | 14985 ft | 280 kts | 4° |
| 2026-04-14 22:58 | 54.22740 | 8.64216 | 14606 ft | 277 kts | 3° |
| 2026-04-14 22:58 | 54.24634 | 8.64672 | 14293 ft | 274 kts | 2° |
| 2026-04-14 22:58 | 54.26525 | 8.65098 | 13923 ft | 272 kts | 0° |
| 2026-04-14 22:59 | 54.28398 | 8.65452 | 13553 ft | 271 kts | 0° |
| 2026-04-14 22:59 | 54.30264 | 8.65791 | 13225 ft | 264 kts | 0° |
| 2026-04-14 22:59 | 54.32064 | 8.66094 | 12900 ft | 257 kts | 359° |
| 2026-04-14 22:59 | 54.33840 | 8.66362 | 12493 ft | 256 kts | 359° |
| 2026-04-14 23:00 | 54.35614 | 8.66703 | 12050 ft | 256 kts | 0° |
| 2026-04-14 23:00 | 54.37383 | 8.67037 | 11674 ft | 254 kts | 0° |
| 2026-04-14 23:00 | 54.39094 | 8.67345 | 11355 ft | 237 kts | 0° |
| 2026-04-14 23:00 | 54.40767 | 8.67682 | 11079 ft | 248 kts | 1° |
| 2026-04-14 23:01 | 54.42470 | 8.68023 | 10967 ft | 249 kts | 2° |
| 2026-04-14 23:01 | 54.44217 | 8.68425 | 10488 ft | 251 kts | 360° |
| 2026-04-14 23:01 | 54.45944 | 8.68705 | 9922 ft | 249 kts | 359° |
| 2026-04-14 23:01 | 54.47627 | 8.68968 | 9352 ft | 236 kts | 359° |
| 2026-04-14 23:02 | 54.49209 | 8.69192 | 9315 ft | 222 kts | 358° |
| 2026-04-14 23:02 | 54.50676 | 8.69415 | 9090 ft | 208 kts | 359° |
| 2026-04-14 23:02 | 54.52110 | 8.69651 | 8758 ft | 205 kts | 359° |
| 2026-04-14 23:02 | 54.53508 | 8.69837 | 8462 ft | 199 kts | 356° |
| 2026-04-14 23:03 | 54.54892 | 8.69911 | 8144 ft | 199 kts | 354° |
| 2026-04-14 23:03 | 54.56267 | 8.69880 | 7859 ft | 196 kts | 352° |
| 2026-04-14 23:03 | 54.57623 | 8.69829 | 7661 ft | 194 kts | 356° |
| 2026-04-14 23:03 | 54.58985 | 8.69982 | 7377 ft | 198 kts | 358° |
| 2026-04-14 23:04 | 54.60373 | 8.70136 | 7277 ft | 202 kts | 356° |
| 2026-04-14 23:04 | 54.61759 | 8.69936 | 7033 ft | 205 kts | 341° |
| 2026-04-14 23:04 | 54.63012 | 8.68948 | 6685 ft | 194 kts | 319° |
| 2026-04-14 23:04 | 54.64019 | 8.67529 | 6420 ft | 191 kts | 317° |
| 2026-04-14 23:05 | 54.65057 | 8.66055 | 6220 ft | 196 kts | 316° |
| 2026-04-14 23:05 | 54.66154 | 8.64631 | 5943 ft | 190 kts | 324° |
| 2026-04-14 23:05 | 54.67282 | 8.63496 | 5696 ft | 193 kts | 325° |
| 2026-04-14 23:05 | 54.68415 | 8.62268 | 5461 ft | 182 kts | 322° |
| 2026-04-14 23:06 | 54.69075 | 8.61525 | 5326 ft | 161 kts | 322° |
| 2026-04-14 23:06 | 54.69995 | 8.60522 | 5220 ft | 153 kts | 321° |
| 2026-04-14 23:06 | 54.70854 | 8.59414 | 5000 ft | 145 kts | 319° |
| 2026-04-14 23:06 | 54.71668 | 8.58383 | 4711 ft | 149 kts | 320° |
| 2026-04-14 23:07 | 54.72509 | 8.57364 | 4532 ft | 146 kts | 321° |
| 2026-04-14 23:07 | 54.73346 | 8.56353 | 4430 ft | 147 kts | 320° |
| 2026-04-14 23:07 | 54.74155 | 8.55288 | 4163 ft | 151 kts | 318° |
| 2026-04-14 23:07 | 54.74996 | 8.54209 | 3998 ft | 151 kts | 322° |
| 2026-04-14 23:08 | 54.75863 | 8.53188 | 3919 ft | 147 kts | 321° |
| 2026-04-14 23:08 | 54.76679 | 8.52203 | 3665 ft | 143 kts | 321° |
| 2026-04-14 23:08 | 54.77474 | 8.51192 | 3428 ft | 141 kts | 319° |
| 2026-04-14 23:08 | 54.78257 | 8.50158 | 3325 ft | 142 kts | 320° |
| 2026-04-14 23:09 | 54.79052 | 8.49120 | 3166 ft | 145 kts | 320° |
| 2026-04-14 23:09 | 54.79829 | 8.48110 | 2818 ft | 135 kts | 319° |
| 2026-04-14 23:09 | 54.80546 | 8.47108 | 2601 ft | 126 kts | 315° |
| 2026-04-14 23:09 | 54.81170 | 8.46064 | 2477 ft | 125 kts | 314° |
| 2026-04-14 23:10 | 54.81856 | 8.45187 | 2308 ft | 123 kts | 329° |
| 2026-04-14 23:10 | 54.82593 | 8.44488 | 2132 ft | 118 kts | 330° |
| 2026-04-14 23:10 | 54.83274 | 8.43846 | 1870 ft | 109 kts | 323° |
| 2026-04-14 23:10 | 54.83880 | 8.43150 | 1691 ft | 101 kts | 324° |
| 2026-04-14 23:11 | 54.84464 | 8.42480 | 1470 ft | 98 kts | 323° |
| 2026-04-14 23:11 | 54.85026 | 8.41835 | 1349 ft | 96 kts | 323° |
| 2026-04-14 23:11 | 54.85576 | 8.41191 | 1244 ft | 95 kts | 323° |
| 2026-04-14 23:11 | 54.86114 | 8.40540 | 1089 ft | 94 kts | 321° |
| 2026-04-14 23:12 | 54.86636 | 8.39871 | 917 ft | 94 kts | 320° |
| 2026-04-14 23:12 | 54.87163 | 8.39226 | 819 ft | 90 kts | 321° |
| 2026-04-14 23:12 | 54.87664 | 8.38606 | 732 ft | 90 kts | 320° |
| 2026-04-14 23:12 | 54.88158 | 8.37920 | 633 ft | 91 kts | 315° |
| 2026-04-14 23:13 | 54.88690 | 8.37260 | 463 ft | 91 kts | 323° |
| 2026-04-14 23:13 | 54.89201 | 8.36647 | 368 ft | 89 kts | 323° |
| 2026-04-14 23:13 | 54.89726 | 8.36042 | 262 ft | 84 kts | 322° |
| 2026-04-14 23:13 | 54.90213 | 8.35457 | 139 ft | 86 kts | 323° |
| 2026-04-14 23:14 | 54.90707 | 8.34807 | 359 ft | 94 kts | 324° |
| 2026-04-14 23:14 | 54.91281 | 8.34045 | 651 ft | 115 kts | 318° |
| 2026-04-14 23:14 | 54.91990 | 8.33241 | 1051 ft | 135 kts | 329° |
| 2026-04-14 23:14 | 54.92814 | 8.32302 | 1505 ft | 152 kts | 319° |
| 2026-04-14 23:15 | 54.93700 | 8.31108 | 2026 ft | 171 kts | 321° |
| 2026-04-14 23:15 | 54.94748 | 8.29782 | 1941 ft | 190 kts | 323° |
| 2026-04-14 23:15 | 54.95818 | 8.28467 | 2161 ft | 190 kts | 322° |
| 2026-04-14 23:15 | 54.96876 | 8.27152 | 2866 ft | 186 kts | 322° |
| 2026-04-14 23:16 | 54.97944 | 8.25821 | 3342 ft | 195 kts | 321° |
| 2026-04-14 23:16 | 54.99085 | 8.24399 | 3294 ft | 197 kts | 322° |
| 2026-04-14 23:16 | 55.00173 | 8.23050 | 3287 ft | 190 kts | 322° |
| 2026-04-14 23:16 | 55.01198 | 8.21632 | 3274 ft | 186 kts | 307° |
| 2026-04-14 23:17 | 55.01496 | 8.19516 | 3279 ft | 186 kts | 261° |
| 2026-04-14 23:17 | 55.01014 | 8.17417 | 3284 ft | 189 kts | 238° |
| 2026-04-14 23:17 | 55.00045 | 8.15901 | 3283 ft | 195 kts | 211° |
| 2026-04-14 23:18 | 54.97387 | 8.16158 | 3284 ft | 203 kts | 154° |
| 2026-04-14 23:18 | 54.96159 | 8.17388 | 3289 ft | 203 kts | 153° |
| 2026-04-14 23:18 | 54.94914 | 8.18555 | 3292 ft | 203 kts | 155° |
| 2026-04-14 23:18 | 54.93658 | 8.19666 | 3287 ft | 204 kts | 156° |
| 2026-04-14 23:19 | 54.92382 | 8.20793 | 3289 ft | 206 kts | 156° |
| 2026-04-14 23:19 | 54.91105 | 8.21929 | 3291 ft | 206 kts | 155° |
| 2026-04-14 23:19 | 54.89827 | 8.23066 | 3292 ft | 207 kts | 155° |
| 2026-04-14 23:19 | 54.88547 | 8.24204 | 3293 ft | 206 kts | 156° |
| 2026-04-14 23:20 | 54.87268 | 8.25338 | 3294 ft | 212 kts | 156° |
| 2026-04-14 23:20 | 54.85910 | 8.26539 | 3301 ft | 226 kts | 156° |
| 2026-04-14 23:20 | 54.84488 | 8.27800 | 3300 ft | 232 kts | 155° |
| 2026-04-14 23:20 | 54.83041 | 8.29085 | 3291 ft | 234 kts | 155° |
| 2026-04-14 23:21 | 54.81586 | 8.30373 | 3294 ft | 235 kts | 155° |
| 2026-04-14 23:21 | 54.80152 | 8.31641 | 3294 ft | 235 kts | 155° |
| 2026-04-14 23:21 | 54.78696 | 8.32927 | 3293 ft | 235 kts | 155° |
| 2026-04-14 23:21 | 54.77238 | 8.34214 | 3237 ft | 237 kts | 155° |
| 2026-04-14 23:22 | 54.75780 | 8.35500 | 3193 ft | 232 kts | 155° |
| 2026-04-14 23:22 | 54.74345 | 8.36767 | 3192 ft | 232 kts | 155° |
| 2026-04-14 23:22 | 54.72900 | 8.38037 | 3193 ft | 233 kts | 155° |
| 2026-04-14 23:22 | 54.71453 | 8.39311 | 3188 ft | 233 kts | 155° |
| 2026-04-14 23:23 | 54.70010 | 8.40579 | 3190 ft | 232 kts | 155° |
| 2026-04-14 23:23 | 54.68822 | 8.42437 | 3178 ft | 237 kts | 120° |
| 2026-04-14 23:23 | 54.68577 | 8.45221 | 3179 ft | 239 kts | 78° |
| 2026-04-14 23:23 | 54.69396 | 8.47641 | 3184 ft | 235 kts | 41° |
| 2026-04-14 23:24 | 54.70648 | 8.49376 | 3203 ft | 233 kts | 33° |
| 2026-04-14 23:24 | 54.72126 | 8.50387 | 3192 ft | 228 kts | 7° |
| 2026-04-14 23:24 | 54.73693 | 8.50773 | 3199 ft | 227 kts | 4° |
| 2026-04-14 23:24 | 54.75264 | 8.51102 | 3206 ft | 228 kts | 4° |
| 2026-04-14 23:25 | 54.76835 | 8.51347 | 3192 ft | 225 kts | 354° |
| 2026-04-14 23:25 | 54.78248 | 8.50343 | 3044 ft | 223 kts | 321° |
| 2026-04-14 23:25 | 54.79468 | 8.48700 | 2750 ft | 220 kts | 321° |
| 2026-04-14 23:25 | 54.80663 | 8.47218 | 2452 ft | 203 kts | 322° |
| 2026-04-14 23:26 | 54.81761 | 8.45866 | 2179 ft | 185 kts | 322° |
| 2026-04-14 23:26 | 54.82749 | 8.44649 | 1930 ft | 163 kts | 322° |
| 2026-04-14 23:26 | 54.83607 | 8.43589 | 1711 ft | 142 kts | 322° |
| 2026-04-14 23:26 | 54.84362 | 8.42657 | 1543 ft | 122 kts | 322° |
| 2026-04-14 23:27 | 54.85005 | 8.41863 | 1397 ft | 105 kts | 321° |
| 2026-04-14 23:27 | 54.85554 | 8.41187 | 1247 ft | 89 kts | 321° |
| 2026-04-14 23:27 | 54.86030 | 8.40595 | 1098 ft | 81 kts | 320° |
| 2026-04-14 23:27 | 54.86491 | 8.40017 | 953 ft | 82 kts | 320° |
| 2026-04-14 23:28 | 54.86957 | 8.39438 | 830 ft | 83 kts | 321° |
| 2026-04-14 23:28 | 54.87419 | 8.38846 | 679 ft | 83 kts | 319° |
| 2026-04-14 23:28 | 54.87900 | 8.38235 | 544 ft | 92 kts | 317° |
| 2026-04-14 23:28 | 54.88443 | 8.37589 | 540 ft | 93 kts | 322° |
| 2026-04-14 23:29 | 54.88963 | 8.36929 | 409 ft | 95 kts | 322° |
| 2026-04-14 23:29 | 54.89495 | 8.36304 | 305 ft | 93 kts | 327° |
| 2026-04-14 23:29 | 54.90030 | 8.35641 | 198 ft | 98 kts | 321° |
| 2026-04-14 23:29 | 54.90605 | 8.34954 | 103 ft | 99 kts | 322° |
| 2026-04-14 23:30 | 54.91129 | 8.34290 | 59 ft | 82 kts | 320° |
| 2026-04-14 23:30 | 54.91504 | 8.33820 | 38 ft | 45 kts | 325° |
| 2026-04-14 23:30 | 54.91636 | 8.33659 | 41 ft | 23 kts | 321° |
| 2026-04-14 23:30 | 54.91697 | 8.33442 | 42 ft | 17 kts | 294° |
| 2026-04-14 23:31 | 54.91761 | 8.33212 | 38 ft | 8 kts | 301° |
| 2026-04-14 23:31 | 54.91740 | 8.33174 | 37 ft | 9 kts | 182° |
| 2026-04-14 23:31 | 54.91709 | 8.33176 | 36 ft | 2 kts | 177° |
| 2026-04-14 23:31 | 54.91641 | 8.33178 | 35 ft | 16 kts | 180° |
| 2026-04-14 23:32 | 54.91529 | 8.33178 | 31 ft | 9 kts | 181° |
| 2026-04-14 23:32 | 54.91470 | 8.33189 | 29 ft | 11 kts | 153° |
| 2026-04-14 23:32 | 54.91386 | 8.33252 | 28 ft | 7 kts | 179° |
| 2026-04-14 23:32 | 54.91322 | 8.33234 | 29 ft | 16 kts | 208° |
| 2026-04-14 23:33 | 54.91261 | 8.33183 | 32 ft | 6 kts | 193° |
| 2026-04-14 23:33 | 54.91158 | 8.33181 | 33 ft | 23 kts | 176° |
| 2026-04-14 23:33 | 54.91070 | 8.33171 | 33 ft | 13 kts | 198° |
| 2026-04-14 23:33 | 54.91015 | 8.33007 | 36 ft | 20 kts | 292° |
| 2026-04-14 23:34 | 54.91091 | 8.32847 | 37 ft | 7 kts | 308° |
| 2026-04-14 23:34 | 54.91125 | 8.32780 | 36 ft | 0 kts | 312° |
| 2026-04-14 23:34 | 54.91157 | 8.32715 | 35 ft | 15 kts | 311° |
| 2026-04-14 23:34 | 54.91205 | 8.32620 | 32 ft | 5 kts | 326° |
| 2026-04-14 23:35 | 54.91244 | 8.32588 | 29 ft | 6 kts | 334° |
| 2026-04-14 23:35 | 54.91263 | 8.32560 | 28 ft | 2 kts | 225° |
| 2026-04-14 23:35 | 54.91244 | 8.32548 | 29 ft | 2 kts | 139° |
| 2026-04-14 23:35 | 54.91233 | 8.32571 | 30 ft | 10 kts | 130° |
| 2026-04-14 23:36 | 54.91182 | 8.32530 | 30 ft | 12 kts | 298° |
| 2026-04-14 23:36 | 54.91229 | 8.32472 | 28 ft | 1 kts | 333° |
| 2026-04-14 23:36 | 54.91234 | 8.32491 | 28 ft | 3 kts | 64° |
| 2026-04-14 23:36 | 54.91237 | 8.32499 | 29 ft | 0 kts | 58° |